No.11 Shigefukumaru — JD3995 — position and weather

sailwx.info

Track history (hours):
 
Tides and Currents Weather Stations Pressure Air Temp Water Temp Dewpoint Dewpoint Depression Visibility Wind Speed Wind Dir Waves Ship Positions

No.11 Shigefukumaru

Last reported at 2018-Jun-21 05:50 UTC. Time now 2018-Jun-22 17:13 UTC.
Position N 33°48' E 135°08'.

Length 60 m; draft 3.5 m.

Type: Tanker. MMSI: 431007738.

Date/timePositionNaut miles runAvg speedWind from/ knotsBaromVisibWave heightAir tempDewpointWater temp
2018-Jun-21 05:50N 33°48' E 135°08'510.9
2018-Jun-21 05:22N 33°52' E 135°04'4 9.9
2018-Jun-21 04:58N 33°56' E 135°03'510.5
2018-Jun-21 04:30N 34°01' E 135°03'510.4
2018-Jun-21 04:00N 34°06' E 135°05'5 9.9
2018-Jun-21 03:30N 34°09' E 135°09'3 1.0
2018-Jun-21 00:56N 34°09' E 135°12'0 0.0
2018-Jun-21 00:30N 34°09' E 135°12'0 0.0
2018-Jun-21 00:00N 34°09' E 135°12'2 3.1
2018-Jun-20 23:30N 34°09' E 135°11'3 5.3
2018-Jun-20 23:00N 34°10' E 135°08'611.8
2018-Jun-20 22:30N 34°15' E 135°04'611.8
2018-Jun-20 22:01N 34°21' E 135°06'612.2
2018-Jun-20 21:31N 34°25' E 135°10'611.4
2018-Jun-20 20:59N 34°28' E 135°17'  
2018-Jun-18 03:42N 34°27' E 135°21'0 0.0
2018-Jun-18 03:30N 34°27' E 135°21'1 0.9
2018-Jun-18 02:57N 34°28' E 135°21'0 0.0
2018-Jun-18 02:28N 34°28' E 135°21'0 0.1
2018-Jun-18 02:00N 34°28' E 135°21'0 0.1
2018-Jun-18 01:30N 34°28' E 135°21'0 0.0
2018-Jun-18 00:59N 34°28' E 135°21'0 0.0
2018-Jun-18 00:30N 34°28' E 135°21'0 0.0
2018-Jun-17 23:58N 34°28' E 135°21'0 0.0
2018-Jun-17 23:29N 34°28' E 135°21'0 0.1
2018-Jun-17 23:01N 34°28' E 135°21'3 6.8
2018-Jun-17 22:30N 34°29' E 135°17'510.6
2018-Jun-17 22:00N 34°26' E 135°11'510.3
2018-Jun-17 21:30N 34°22' E 135°07'510.0
2018-Jun-17 21:00N 34°18' E 135°04'5 9.8
2018-Jun-17 20:30N 34°13' E 135°02'611.3
2018-Jun-17 20:00N 34°08' E 135°02'611.2
2018-Jun-17 19:30N 34°02' E 135°02'611.0
2018-Jun-17 18:59N 33°56' E 135°02'510.0
2018-Jun-17 18:27N 33°51' E 135°03'6 0.1
2018-Jun-15 15:51N 33°47' E 135°08'512.1
2018-Jun-15 15:28N 33°51' E 135°04'511.7
2018-Jun-15 15:00N 33°55' E 135°01'611.3
2018-Jun-15 14:29N 34°01' E 135°00'511.1
2018-Jun-15 14:00N 34°07' E 134°60'611.0
2018-Jun-15 13:30N 34°12' E 134°59'510.0
2018-Jun-15 13:00N 34°17' E 134°59'4 7.3
2018-Jun-15 12:29N 34°21' E 134°60'5 9.5
2018-Jun-15 12:00N 34°25' E 135°01'510.0
2018-Jun-15 11:30N 34°30' E 135°02'4 8.9
2018-Jun-15 11:00N 34°35' E 135°03'3 5.6
2018-Jun-15 10:29N 34°37' E 135°01'4 7.8
2018-Jun-15 10:00N 34°36' E 134°56'6 9.3
2018-Jun-15 09:22N 34°33' E 134°50'510.3
2018-Jun-15 08:55N 34°31' E 134°45'510.4
2018-Jun-15 08:28N 34°30' E 134°39'511.0
2018-Jun-15 08:00N 34°28' E 134°33'611.5
2018-Jun-15 07:30N 34°26' E 134°27'9 0.3
2018-Jun-13 21:25N 34°24' E 134°16'512.1
2018-Jun-13 21:00N 34°25' E 134°22'611.6
2018-Jun-13 20:30N 34°27' E 134°29'611.5
2018-Jun-13 20:00N 34°29' E 134°35'611.5
2018-Jun-13 19:30N 34°31' E 134°42'611.4
2018-Jun-13 19:00N 34°33' E 134°48'610.7
2018-Jun-13 18:29N 34°36' E 134°54'5 9.7
2018-Jun-13 18:00N 34°37' E 134°59'4 7.5
2018-Jun-13 17:30N 34°36' E 135°04'4 7.5
2018-Jun-13 17:00N 34°32' E 135°05'510.8
2018-Jun-13 16:30N 34°27' E 135°03'510.2
2018-Jun-13 16:00N 34°22' E 135°01'5 9.8
2018-Jun-13 15:30N 34°18' E 134°59'5 9.9
2018-Jun-13 15:00N 34°13' E 134°59'510.9
2018-Jun-13 14:30N 34°07' E 134°60'510.9
2018-Jun-13 14:00N 34°02' E 135°00'610.6
2018-Jun-13 13:27N 33°56' E 135°01'410.0
2018-Jun-13 13:00N 33°51' E 135°02'  
Track history (hours):
 
Tides and Currents Weather Stations Pressure Air Temp Water Temp Dewpoint Dewpoint Depression Visibility Wind Speed Wind Dir Waves Ship Positions

No.11 Shigefukumaru

Last reported at 2018-Jun-21 05:50 UTC. Time now 2018-Jun-22 17:13 UTC.
Position N 33°48' E 135°08'.

Length 60 m; draft 3.5 m.

Type: Tanker. MMSI: 431007738.

Date/timePositionNaut miles runAvg speedWind from/ knotsBaromVisibWave heightAir tempDewpointWater temp
2018-Jun-21 05:50N 33°48' E 135°08'510.9
2018-Jun-21 05:22N 33°52' E 135°04'4 9.9
2018-Jun-21 04:58N 33°56' E 135°03'510.5
2018-Jun-21 04:30N 34°01' E 135°03'510.4
2018-Jun-21 04:00N 34°06' E 135°05'5 9.9
2018-Jun-21 03:30N 34°09' E 135°09'3 1.0
2018-Jun-21 00:56N 34°09' E 135°12'0 0.0
2018-Jun-21 00:30N 34°09' E 135°12'0 0.0
2018-Jun-21 00:00N 34°09' E 135°12'2 3.1
2018-Jun-20 23:30N 34°09' E 135°11'3 5.3
2018-Jun-20 23:00N 34°10' E 135°08'611.8
2018-Jun-20 22:30N 34°15' E 135°04'611.8
2018-Jun-20 22:01N 34°21' E 135°06'612.2
2018-Jun-20 21:31N 34°25' E 135°10'611.4
2018-Jun-20 20:59N 34°28' E 135°17'  
2018-Jun-18 03:42N 34°27' E 135°21'0 0.0
2018-Jun-18 03:30N 34°27' E 135°21'1 0.9
2018-Jun-18 02:57N 34°28' E 135°21'0 0.0
2018-Jun-18 02:28N 34°28' E 135°21'0 0.1
2018-Jun-18 02:00N 34°28' E 135°21'0 0.1
2018-Jun-18 01:30N 34°28' E 135°21'0 0.0
2018-Jun-18 00:59N 34°28' E 135°21'0 0.0
2018-Jun-18 00:30N 34°28' E 135°21'0 0.0
2018-Jun-17 23:58N 34°28' E 135°21'0 0.0
2018-Jun-17 23:29N 34°28' E 135°21'0 0.1
2018-Jun-17 23:01N 34°28' E 135°21'3 6.8
2018-Jun-17 22:30N 34°29' E 135°17'510.6
2018-Jun-17 22:00N 34°26' E 135°11'510.3
2018-Jun-17 21:30N 34°22' E 135°07'510.0
2018-Jun-17 21:00N 34°18' E 135°04'5 9.8
2018-Jun-17 20:30N 34°13' E 135°02'611.3
2018-Jun-17 20:00N 34°08' E 135°02'611.2
2018-Jun-17 19:30N 34°02' E 135°02'611.0
2018-Jun-17 18:59N 33°56' E 135°02'510.0
2018-Jun-17 18:27N 33°51' E 135°03'6 0.1
2018-Jun-15 15:51N 33°47' E 135°08'512.1
2018-Jun-15 15:28N 33°51' E 135°04'511.7
2018-Jun-15 15:00N 33°55' E 135°01'611.3
2018-Jun-15 14:29N 34°01' E 135°00'511.1
2018-Jun-15 14:00N 34°07' E 134°60'611.0
2018-Jun-15 13:30N 34°12' E 134°59'510.0
2018-Jun-15 13:00N 34°17' E 134°59'4 7.3
2018-Jun-15 12:29N 34°21' E 134°60'5 9.5
2018-Jun-15 12:00N 34°25' E 135°01'510.0
2018-Jun-15 11:30N 34°30' E 135°02'4 8.9
2018-Jun-15 11:00N 34°35' E 135°03'3 5.6
2018-Jun-15 10:29N 34°37' E 135°01'4 7.8
2018-Jun-15 10:00N 34°36' E 134°56'6 9.3
2018-Jun-15 09:22N 34°33' E 134°50'510.3
2018-Jun-15 08:55N 34°31' E 134°45'510.4
2018-Jun-15 08:28N 34°30' E 134°39'511.0
2018-Jun-15 08:00N 34°28' E 134°33'611.5
2018-Jun-15 07:30N 34°26' E 134°27'9 0.3
2018-Jun-13 21:25N 34°24' E 134°16'512.1
2018-Jun-13 21:00N 34°25' E 134°22'611.6
2018-Jun-13 20:30N 34°27' E 134°29'611.5
2018-Jun-13 20:00N 34°29' E 134°35'611.5
2018-Jun-13 19:30N 34°31' E 134°42'611.4
2018-Jun-13 19:00N 34°33' E 134°48'610.7
2018-Jun-13 18:29N 34°36' E 134°54'5 9.7
2018-Jun-13 18:00N 34°37' E 134°59'4 7.5
2018-Jun-13 17:30N 34°36' E 135°04'4 7.5
2018-Jun-13 17:00N 34°32' E 135°05'510.8
2018-Jun-13 16:30N 34°27' E 135°03'510.2
2018-Jun-13 16:00N 34°22' E 135°01'5 9.8
2018-Jun-13 15:30N 34°18' E 134°59'5 9.9
2018-Jun-13 15:00N 34°13' E 134°59'510.9
2018-Jun-13 14:30N 34°07' E 134°60'510.9
2018-Jun-13 14:00N 34°02' E 135°00'610.6
2018-Jun-13 13:27N 33°56' E 135°01'410.0
2018-Jun-13 13:00N 33°51' E 135°02'  

Dump ship's entire track history